Time;durP1;ratioP1;P1;durP2;ratioP2;P2;SDS_P1;SDS_P2;PMS_P1;PMS_P2;Temp;Humidity;BMP_temperature;BMP_pressure;BME280_temperature;BME280_humidity;BME280_pressure;Samples;Min_cycle;Max_cycle;Signal;HPM_P1;HPM_P2
2022/02/23 00:02:00;;;;;;;1.10;1.10;;;;;;;;;;1889232;76;26774;-46
2022/02/23 00:04:27;;;;;;;0.98;0.98;;;;;;;;;;1888550;76;26338;-44
2022/02/23 00:06:54;;;;;;;0.98;0.98;;;;;;;;;;1887346;76;26334;-44
2022/02/23 00:09:22;;;;;;;0.98;0.98;;;;;;;;;;1886023;76;26182;-44
2022/02/23 00:11:49;;;;;;;1.00;1.00;;;;;;;;;;1887751;76;26338;-44
2022/02/23 00:14:16;;;;;;;0.90;0.90;;;;;;;;;;1889049;76;26357;-46
2022/02/23 00:16:43;;;;;;;1.00;1.00;;;;;;;;;;1889001;76;26894;-46
2022/02/23 00:19:11;;;;;;;0.90;0.90;;;;;;;;;;1890732;75;27492;-44
2022/02/23 00:21:38;;;;;;;0.90;0.90;;;;;;;;;;1886047;76;26358;-44
2022/02/23 00:24:06;;;;;;;1.10;1.10;;;;;;;;;;1886961;76;26256;-45
2022/02/23 00:26:34;;;;;;;1.00;1.00;;;;;;;;;;1887956;76;26072;-46
2022/02/23 00:29:03;;;;;;;1.02;1.02;;;;;;;;;;1888845;76;26693;-45
2022/02/23 00:31:30;;;;;;;0.98;0.98;;;;;;;;;;1888502;76;26225;-47
2022/02/23 00:33:57;;;;;;;0.90;0.90;;;;;;;;;;1888419;76;26787;-46
2022/02/23 00:36:25;;;;;;;1.00;1.00;;;;;;;;;;1887442;76;27452;-45
2022/02/23 00:38:52;;;;;;;0.90;0.90;;;;;;;;;;1888456;76;26753;-44
2022/02/23 00:41:19;;;;;;;0.90;0.90;;;;;;;;;;1885745;76;26323;-46
2022/02/23 00:43:47;;;;;;;0.90;0.90;;;;;;;;;;1889382;75;26217;-44
2022/02/23 00:46:14;;;;;;;0.90;0.90;;;;;;;;;;1883263;76;26401;-44
2022/02/23 00:48:41;;;;;;;1.10;1.10;;;;;;;;;;1889054;76;26594;-44
2022/02/23 00:51:09;;;;;;;0.90;0.90;;;;;;;;;;1888807;76;26355;-46
2022/02/23 00:53:36;;;;;;;0.95;0.95;;;;;;;;;;1886281;76;26339;-44
2022/02/23 00:56:04;;;;;;;0.90;0.90;;;;;;;;;;1888082;75;27339;-45
2022/02/23 00:58:31;;;;;;;0.95;0.95;;;;;;;;;;1884900;76;26334;-44
2022/02/23 01:00:59;;;;;;;1.00;1.00;;;;;;;;;;1888869;76;26273;-46
2022/02/23 01:03:26;;;;;;;1.00;1.00;;;;;;;;;;1888714;76;26236;-46
2022/02/23 01:05:54;;;;;;;0.80;0.80;;;;;;;;;;1889692;75;26279;-45
2022/02/23 01:08:21;;;;;;;1.10;1.10;;;;;;;;;;1889167;76;26252;-47
2022/02/23 01:10:48;;;;;;;1.00;1.00;;;;;;;;;;1889005;76;26278;-44
2022/02/23 01:13:16;;;;;;;1.00;1.00;;;;;;;;;;1887509;74;26309;-44
2022/02/23 01:15:43;;;;;;;0.90;0.90;;;;;;;;;;1875837;76;26254;-45
2022/02/23 01:18:10;;;;;;;0.90;0.90;;;;;;;;;;1873145;76;26373;-47
2022/02/23 01:20:38;;;;;;;0.85;0.85;;;;;;;;;;1889040;76;26720;-45
2022/02/23 01:23:05;;;;;;;0.93;0.93;;;;;;;;;;1885499;76;26783;-44
2022/02/23 01:25:32;;;;;;;1.00;1.00;;;;;;;;;;1889225;76;26272;-44
2022/02/23 01:28:01;;;;;;;1.00;1.00;;;;;;;;;;1884378;74;26338;-44
2022/02/23 01:30:28;;;;;;;0.90;0.90;;;;;;;;;;1887926;76;26297;-46
2022/02/23 01:32:56;;;;;;;0.80;0.80;;;;;;;;;;1888267;76;26303;-44
2022/02/23 01:35:23;;;;;;;0.93;0.93;;;;;;;;;;1880248;75;26343;-45
2022/02/23 01:37:52;;;;;;;0.85;0.85;;;;;;;;;;1865280;76;26283;-44
2022/02/23 01:40:20;;;;;;;0.90;0.90;;;;;;;;;;1877765;76;26808;-46
2022/02/23 01:42:47;;;;;;;0.85;0.85;;;;;;;;;;1878969;76;26218;-44
2022/02/23 01:45:15;;;;;;;1.00;1.00;;;;;;;;;;1880215;76;26304;-44
2022/02/23 01:47:42;;;;;;;0.90;0.90;;;;;;;;;;1879712;76;25755;-44
2022/02/23 01:50:10;;;;;;;0.95;0.95;;;;;;;;;;1878379;76;26896;-47
2022/02/23 01:52:38;;;;;;;1.00;1.00;;;;;;;;;;1879835;76;26273;-48
2022/02/23 01:55:05;;;;;;;0.90;0.90;;;;;;;;;;1876940;75;26834;-44
2022/02/23 01:57:33;;;;;;;1.10;1.10;;;;;;;;;;1876982;75;25790;-44
2022/02/23 02:00:01;;;;;;;0.85;0.85;;;;;;;;;;1878697;75;26402;-45
2022/02/23 02:02:29;;;;;;;0.90;0.90;;;;;;;;;;1873853;76;26319;-44
2022/02/23 02:04:57;;;;;;;0.90;0.90;;;;;;;;;;1882366;75;26209;-45
2022/02/23 02:07:24;;;;;;;0.95;0.95;;;;;;;;;;1879338;75;26327;-46
2022/02/23 02:09:51;;;;;;;0.90;0.90;;;;;;;;;;1879674;76;26256;-44
2022/02/23 02:12:18;;;;;;;0.90;0.90;;;;;;;;;;1874791;76;26301;-45
2022/02/23 02:14:46;;;;;;;0.95;0.95;;;;;;;;;;1874940;76;26248;-44
2022/02/23 02:17:13;;;;;;;0.90;0.90;;;;;;;;;;1874653;76;26261;-44
2022/02/23 02:19:40;;;;;;;0.75;0.75;;;;;;;;;;1878283;76;26303;-44
2022/02/23 02:22:08;;;;;;;0.90;0.90;;;;;;;;;;1861992;75;26346;-44
2022/02/23 02:24:40;;;;;;;0.90;0.90;;;;;;;;;;1870991;76;26335;-44
2022/02/23 02:27:09;;;;;;;0.90;0.90;;;;;;;;;;1880093;76;26186;-44
2022/02/23 02:29:37;;;;;;;0.90;0.90;;;;;;;;;;1876246;76;26256;-46
2022/02/23 02:32:05;;;;;;;1.00;1.00;;;;;;;;;;1879565;76;26343;-44
2022/02/23 02:34:32;;;;;;;0.80;0.80;;;;;;;;;;1879933;76;26748;-44
2022/02/23 02:36:59;;;;;;;0.85;0.85;;;;;;;;;;1867624;76;26240;-46
2022/02/23 02:39:27;;;;;;;0.90;0.90;;;;;;;;;;1855941;76;26257;-46
2022/02/23 02:41:54;;;;;;;1.00;1.00;;;;;;;;;;1870826;76;26264;-45
2022/02/23 02:44:22;;;;;;;1.40;0.90;;;;;;;;;;1879434;76;26640;-44
2022/02/23 02:46:50;;;;;;;0.75;0.75;;;;;;;;;;1875760;76;26346;-45
2022/02/23 02:49:17;;;;;;;0.90;0.90;;;;;;;;;;1876652;76;26843;-45
2022/02/23 02:51:45;;;;;;;1.00;1.00;;;;;;;;;;1879339;76;26786;-44
2022/02/23 02:54:12;;;;;;;1.37;0.90;;;;;;;;;;1878287;76;26218;-44
2022/02/23 02:56:40;;;;;;;1.00;1.00;;;;;;;;;;1877613;75;26373;-44
2022/02/23 02:59:08;;;;;;;0.88;0.88;;;;;;;;;;1877186;76;26252;-44
2022/02/23 03:01:36;;;;;;;0.90;0.90;;;;;;;;;;1877589;76;26259;-46
2022/02/23 03:04:04;;;;;;;0.85;0.85;;;;;;;;;;1860420;76;26253;-45
2022/02/23 03:06:31;;;;;;;1.00;1.00;;;;;;;;;;1876968;76;26354;-45
2022/02/23 03:08:59;;;;;;;1.00;1.00;;;;;;;;;;1879881;76;26266;-46
2022/02/23 03:11:26;;;;;;;0.90;0.90;;;;;;;;;;1879287;76;26720;-45
2022/02/23 03:13:53;;;;;;;0.80;0.80;;;;;;;;;;1880029;76;26245;-46
2022/02/23 03:16:22;;;;;;;0.90;0.90;;;;;;;;;;1867494;76;26195;-46
2022/02/23 03:18:49;;;;;;;0.90;0.90;;;;;;;;;;1875594;76;26304;-44
2022/02/23 03:21:16;;;;;;;0.80;0.80;;;;;;;;;;1868275;76;26276;-45
2022/02/23 03:23:44;;;;;;;0.98;0.98;;;;;;;;;;1869968;76;26723;-44
2022/02/23 03:26:13;;;;;;;0.90;0.90;;;;;;;;;;1857973;76;26249;-46
2022/02/23 03:28:41;;;;;;;0.90;0.90;;;;;;;;;;1878522;76;26708;-45
2022/02/23 03:31:09;;;;;;;0.90;0.90;;;;;;;;;;1877000;76;27276;-45
2022/02/23 03:33:42;;;;;;;0.90;0.90;;;;;;;;;;1879777;76;26803;-47
2022/02/23 03:36:06;;;;;;;0.80;0.80;;;;;;;;;;1878794;76;26257;-45
2022/02/23 03:38:33;;;;;;;0.90;0.90;;;;;;;;;;1870801;76;26238;-45
2022/02/23 03:41:00;;;;;;;0.90;0.90;;;;;;;;;;1871956;75;26252;-45
2022/02/23 03:43:28;;;;;;;0.80;0.80;;;;;;;;;;1861958;76;26335;-47
2022/02/23 03:45:55;;;;;;;0.80;0.80;;;;;;;;;;1872412;76;26347;-46
2022/02/23 03:48:22;;;;;;;0.80;0.80;;;;;;;;;;1868706;76;26249;-44
2022/02/23 03:50:50;;;;;;;0.90;0.90;;;;;;;;;;1879528;76;26843;-45
2022/02/23 03:53:17;;;;;;;0.90;0.90;;;;;;;;;;1873206;75;26705;-44
2022/02/23 03:55:44;;;;;;;0.80;0.80;;;;;;;;;;1877028;75;26293;-44
2022/02/23 03:58:12;;;;;;;0.90;0.90;;;;;;;;;;1876367;76;26264;-45
2022/02/23 04:00:39;;;;;;;0.90;0.90;;;;;;;;;;1875123;75;26303;-46
2022/02/23 04:03:06;;;;;;;1.10;1.10;;;;;;;;;;1876120;75;26882;-44
2022/02/23 04:05:33;;;;;;;0.90;0.90;;;;;;;;;;1877787;76;26241;-45
2022/02/23 04:08:01;;;;;;;2.15;0.90;;;;;;;;;;1879581;76;26249;-45
2022/02/23 04:10:28;;;;;;;0.90;0.90;;;;;;;;;;1879836;76;26325;-47
2022/02/23 04:12:56;;;;;;;0.90;0.90;;;;;;;;;;1865886;76;26750;-44
2022/02/23 04:15:23;;;;;;;0.80;0.80;;;;;;;;;;1867793;76;26395;-44
2022/02/23 04:17:50;;;;;;;0.93;0.93;;;;;;;;;;1870934;76;26201;-44
2022/02/23 04:20:17;;;;;;;0.80;0.80;;;;;;;;;;1875035;76;26249;-46
2022/02/23 04:22:45;;;;;;;0.90;0.90;;;;;;;;;;1877102;76;26291;-45
2022/02/23 04:25:12;;;;;;;0.70;0.70;;;;;;;;;;1865680;76;26285;-45
2022/02/23 04:27:40;;;;;;;0.80;0.80;;;;;;;;;;1879286;76;26386;-45
2022/02/23 04:30:07;;;;;;;0.80;0.80;;;;;;;;;;1879516;76;26736;-44
2022/02/23 04:32:36;;;;;;;0.88;0.88;;;;;;;;;;1877554;76;26731;-45
2022/02/23 04:35:03;;;;;;;0.80;0.80;;;;;;;;;;1881605;75;26372;-45
2022/02/23 04:37:31;;;;;;;0.90;0.90;;;;;;;;;;1867629;76;26606;-46
2022/02/23 04:40:00;;;;;;;0.60;0.60;;;;;;;;;;1877569;76;26328;-44
2022/02/23 04:42:28;;;;;;;0.80;0.80;;;;;;;;;;1879937;76;26269;-44
2022/02/23 04:45:00;;;;;;;0.90;0.90;;;;;;;;;;1874785;76;26349;-44
2022/02/23 04:47:24;;;;;;;0.80;0.80;;;;;;;;;;1864559;75;26276;-46
2022/02/23 04:49:51;;;;;;;0.80;0.80;;;;;;;;;;1879193;76;26335;-45
2022/02/23 04:52:18;;;;;;;0.80;0.80;;;;;;;;;;1879601;76;26310;-44
2022/02/23 04:54:46;;;;;;;0.75;0.75;;;;;;;;;;1879528;76;26256;-45
2022/02/23 04:57:13;;;;;;;0.70;0.70;;;;;;;;;;1867497;76;26369;-47
2022/02/23 04:59:40;;;;;;;0.80;0.80;;;;;;;;;;1879893;75;26693;-46
2022/02/23 05:02:09;;;;;;;0.70;0.70;;;;;;;;;;1879177;76;26798;-46
2022/02/23 05:04:37;;;;;;;0.68;0.68;;;;;;;;;;1877220;76;26280;-45
2022/02/23 05:07:05;;;;;;;0.65;0.65;;;;;;;;;;1877381;76;26233;-45
2022/02/23 05:09:32;;;;;;;0.75;0.75;;;;;;;;;;1879163;76;26257;-45
2022/02/23 05:12:00;;;;;;;0.78;0.78;;;;;;;;;;1878280;76;26303;-44
2022/02/23 05:14:27;;;;;;;0.75;0.62;;;;;;;;;;1877845;75;26289;-45
2022/02/23 05:16:54;;;;;;;0.80;0.80;;;;;;;;;;1875447;76;26256;-46
2022/02/23 05:19:21;;;;;;;0.78;0.78;;;;;;;;;;1878739;76;26241;-47
2022/02/23 05:21:49;;;;;;;0.65;0.65;;;;;;;;;;1878798;76;26241;-47
2022/02/23 05:24:16;;;;;;;0.70;0.70;;;;;;;;;;1877788;76;26229;-49
2022/02/23 05:26:43;;;;;;;0.65;0.65;;;;;;;;;;1873103;76;26260;-46
2022/02/23 05:29:10;;;;;;;0.68;0.68;;;;;;;;;;1869371;76;26210;-47
2022/02/23 05:31:38;;;;;;;0.60;0.60;;;;;;;;;;1874924;76;26315;-45
2022/02/23 05:34:05;;;;;;;0.80;0.80;;;;;;;;;;1876659;76;26277;-46
2022/02/23 05:36:33;;;;;;;0.60;0.60;;;;;;;;;;1879347;76;26324;-45
2022/02/23 05:39:00;;;;;;;0.70;0.70;;;;;;;;;;1879428;76;26312;-46
2022/02/23 05:41:27;;;;;;;0.68;0.68;;;;;;;;;;1875316;76;26245;-47
2022/02/23 05:43:54;;;;;;;0.60;0.60;;;;;;;;;;1875358;76;26277;-45
2022/02/23 05:46:22;;;;;;;0.70;0.70;;;;;;;;;;1878446;76;26266;-44
2022/02/23 05:48:49;;;;;;;0.90;0.75;;;;;;;;;;1872694;75;26677;-44
2022/02/23 05:51:30;;;;;;;0.72;0.72;;;;;;;;;;1875573;76;26929;-45
2022/02/23 05:53:58;;;;;;;0.70;0.70;;;;;;;;;;1871354;76;26265;-45
2022/02/23 05:56:26;;;;;;;0.60;0.60;;;;;;;;;;1876830;75;26296;-46
2022/02/23 05:58:54;;;;;;;0.70;0.70;;;;;;;;;;1876707;76;26240;-44
2022/02/23 06:01:22;;;;;;;0.50;0.50;;;;;;;;;;1878957;76;26257;-47
2022/02/23 06:03:50;;;;;;;0.55;0.55;;;;;;;;;;1878416;76;26260;-46
2022/02/23 06:06:17;;;;;;;0.60;0.60;;;;;;;;;;1875118;76;26812;-44
2022/02/23 06:08:44;;;;;;;0.55;0.55;;;;;;;;;;1879361;76;26186;-47
2022/02/23 06:11:13;;;;;;;0.60;0.60;;;;;;;;;;1878403;76;26238;-44
2022/02/23 06:13:41;;;;;;;0.70;0.70;;;;;;;;;;1879181;76;26357;-45
2022/02/23 06:16:09;;;;;;;0.70;0.70;;;;;;;;;;1873032;76;26296;-46
2022/02/23 06:18:36;;;;;;;1.22;0.70;;;;;;;;;;1879522;76;26859;-45
2022/02/23 06:21:04;;;;;;;0.60;0.60;;;;;;;;;;1877295;76;26277;-44
2022/02/23 06:23:33;;;;;;;3.90;0.90;;;;;;;;;;1876143;75;26197;-44
2022/02/23 06:26:01;;;;;;;0.60;0.60;;;;;;;;;;1881445;75;26584;-44
2022/02/23 06:28:28;;;;;;;0.78;0.78;;;;;;;;;;1879336;76;26288;-44
2022/02/23 06:30:55;;;;;;;3.77;0.75;;;;;;;;;;1877348;76;26674;-46
2022/02/23 06:33:25;;;;;;;2.50;0.85;;;;;;;;;;1878893;76;26350;-43
2022/02/23 06:35:53;;;;;;;2.75;0.85;;;;;;;;;;1874717;76;26460;-44
2022/02/23 06:38:20;;;;;;;1.62;0.75;;;;;;;;;;1846222;76;26854;-43
2022/02/23 06:40:49;;;;;;;1.10;0.85;;;;;;;;;;1857808;76;26261;-44
2022/02/23 06:43:17;;;;;;;2.05;1.20;;;;;;;;;;1856543;76;26256;-45
2022/02/23 06:45:48;;;;;;;2.37;0.90;;;;;;;;;;1850872;76;26751;-45
2022/02/23 06:48:22;;;;;;;1.10;0.98;;;;;;;;;;1850539;76;26260;-44
2022/02/23 06:50:46;;;;;;;1.20;1.10;;;;;;;;;;1853229;76;26365;-44
2022/02/23 06:53:13;;;;;;;0.93;0.82;;;;;;;;;;1853744;76;26287;-46
2022/02/23 06:55:41;;;;;;;2.60;0.60;;;;;;;;;;1852961;76;26308;-45
2022/02/23 06:58:09;;;;;;;1.75;0.80;;;;;;;;;;1854754;76;26276;-45
2022/02/23 07:00:37;;;;;;;0.72;0.60;;;;;;;;;;1848719;76;26335;-45
2022/02/23 07:03:04;;;;;;;1.17;0.80;;;;;;;;;;1844063;76;26318;-45
2022/02/23 07:05:32;;;;;;;2.17;0.72;;;;;;;;;;1838505;76;26285;-45
2022/02/23 07:08:02;;;;;;;0.60;0.60;;;;;;;;;;1848230;76;26256;-44
2022/02/23 07:10:30;;;;;;;0.70;0.70;;;;;;;;;;1838492;76;26327;-45
2022/02/23 07:12:58;;;;;;;2.37;0.60;;;;;;;;;;1853227;76;26284;-45
2022/02/23 07:15:25;;;;;;;0.98;0.70;;;;;;;;;;1841851;76;26273;-44
2022/02/23 07:17:53;;;;;;;0.70;0.70;;;;;;;;;;1840624;76;26282;-44
2022/02/23 07:20:22;;;;;;;0.80;0.80;;;;;;;;;;1853214;76;26770;-44
2022/02/23 07:22:50;;;;;;;0.85;0.85;;;;;;;;;;1848730;76;26777;-45
2022/02/23 07:25:17;;;;;;;1.20;0.85;;;;;;;;;;1851513;76;26276;-45
2022/02/23 07:27:45;;;;;;;1.67;0.90;;;;;;;;;;1852731;76;26718;-45
2022/02/23 07:30:16;;;;;;;0.80;0.80;;;;;;;;;;1850715;76;26307;-44
2022/02/23 07:32:43;;;;;;;0.93;0.90;;;;;;;;;;1848351;76;26304;-46
2022/02/23 07:35:11;;;;;;;1.10;0.88;;;;;;;;;;1852166;76;27536;-43
2022/02/23 07:37:41;;;;;;;0.68;0.65;;;;;;;;;;1867779;76;26301;-45
2022/02/23 07:40:10;;;;;;;0.80;0.80;;;;;;;;;;1875620;76;26638;-42
2022/02/23 07:42:39;;;;;;;3.65;0.80;;;;;;;;;;1878983;76;26245;-43
2022/02/23 07:45:08;;;;;;;0.70;0.70;;;;;;;;;;1877239;76;26198;-42
2022/02/23 07:47:36;;;;;;;0.75;0.75;;;;;;;;;;1877395;76;26246;-43
2022/02/23 07:50:12;;;;;;;1.30;0.82;;;;;;;;;;1879528;76;26804;-43
2022/02/23 07:52:38;;;;;;;0.80;0.80;;;;;;;;;;1880049;75;26559;-44
2022/02/23 07:55:06;;;;;;;0.80;0.80;;;;;;;;;;1878170;76;26289;-43
2022/02/23 07:57:34;;;;;;;0.80;0.80;;;;;;;;;;1875951;75;26779;-44
2022/02/23 08:00:01;;;;;;;1.85;0.70;;;;;;;;;;1875434;76;26294;-43
2022/02/23 08:02:32;;;;;;;1.02;0.90;;;;;;;;;;1878622;76;26702;-43
2022/02/23 08:04:59;;;;;;;1.15;0.98;;;;;;;;;;1875049;76;26744;-44
2022/02/23 08:07:28;;;;;;;0.70;0.70;;;;;;;;;;1879892;76;26624;-42
2022/02/23 08:09:55;;;;;;;1.95;0.82;;;;;;;;;;1879251;76;26297;-46
2022/02/23 08:12:23;;;;;;;1.00;1.00;;;;;;;;;;1868662;76;26276;-42
2022/02/23 08:14:52;;;;;;;0.78;0.78;;;;;;;;;;1879633;76;26289;-42
2022/02/23 08:20:06;;;;;;;0.98;0.80;;;;;;;;;;1874170;76;27427;-43
2022/02/23 08:22:35;;;;;;;2.27;0.98;;;;;;;;;;1873582;76;26269;-43
2022/02/23 08:25:03;;;;;;;3.02;0.90;;;;;;;;;;1876769;75;26327;-48
2022/02/23 08:27:32;;;;;;;0.88;0.88;;;;;;;;;;1879823;76;26701;-44
2022/02/23 08:29:59;;;;;;;0.90;0.90;;;;;;;;;;1879695;76;26289;-44
2022/02/23 08:32:26;;;;;;;2.15;0.85;;;;;;;;;;1879361;76;26881;-48
2022/02/23 08:34:54;;;;;;;0.80;0.80;;;;;;;;;;1879586;76;26759;-42
2022/02/23 08:37:21;;;;;;;1.98;1.00;;;;;;;;;;1862173;75;26421;-42
2022/02/23 08:39:50;;;;;;;0.80;0.80;;;;;;;;;;1874523;76;26283;-43
2022/02/23 08:42:17;;;;;;;0.93;0.90;;;;;;;;;;1876998;76;26772;-42
2022/02/23 08:44:45;;;;;;;1.12;1.10;;;;;;;;;;1876772;76;26277;-41
2022/02/23 08:47:15;;;;;;;1.22;1.02;;;;;;;;;;1877116;76;26268;-42
2022/02/23 08:49:42;;;;;;;1.00;1.00;;;;;;;;;;1875456;76;26328;-42
2022/02/23 08:52:10;;;;;;;0.80;0.80;;;;;;;;;;1878166;76;26273;-42
2022/02/23 08:54:38;;;;;;;0.98;0.88;;;;;;;;;;1869809;76;26324;-43
2022/02/23 08:57:05;;;;;;;0.98;0.98;;;;;;;;;;1878951;75;26241;-43
2022/02/23 08:59:34;;;;;;;0.90;0.90;;;;;;;;;;1878529;76;26201;-43
2022/02/23 09:02:02;;;;;;;1.30;0.90;;;;;;;;;;1869366;76;26288;-45
2022/02/23 09:04:29;;;;;;;1.90;0.70;;;;;;;;;;1878268;75;26772;-46
2022/02/23 09:06:56;;;;;;;0.88;0.88;;;;;;;;;;1879690;75;26742;-44
2022/02/23 09:09:24;;;;;;;0.90;0.85;;;;;;;;;;1876611;76;26335;-45
2022/02/23 09:11:53;;;;;;;0.80;0.80;;;;;;;;;;1874356;76;26280;-45
2022/02/23 09:14:20;;;;;;;0.80;0.80;;;;;;;;;;1879536;76;26297;-46
2022/02/23 09:16:47;;;;;;;0.90;0.80;;;;;;;;;;1876082;76;26732;-44
2022/02/23 09:19:15;;;;;;;1.27;0.75;;;;;;;;;;1873960;76;26367;-42
2022/02/23 09:21:42;;;;;;;0.68;0.68;;;;;;;;;;1873956;76;26347;-43
2022/02/23 09:24:09;;;;;;;0.70;0.70;;;;;;;;;;1875166;75;26267;-41
2022/02/23 09:26:36;;;;;;;0.80;0.80;;;;;;;;;;1877316;76;26191;-45
2022/02/23 09:29:04;;;;;;;0.72;0.72;;;;;;;;;;1877354;76;26268;-44
2022/02/23 09:31:32;;;;;;;1.55;0.90;;;;;;;;;;1869747;75;26340;-44
2022/02/23 09:33:59;;;;;;;0.80;0.80;;;;;;;;;;1863309;76;26376;-43
2022/02/23 09:36:27;;;;;;;2.15;0.68;;;;;;;;;;1883970;75;26678;-45
2022/02/23 09:38:54;;;;;;;2.30;1.57;;;;;;;;;;1876861;76;26308;-48
2022/02/23 09:41:22;;;;;;;2.67;0.80;;;;;;;;;;1878811;76;26339;-49
2022/02/23 09:43:53;;;;;;;0.70;0.70;;;;;;;;;;1861723;75;26269;-46
2022/02/23 09:46:21;;;;;;;1.47;0.72;;;;;;;;;;1871844;76;26343;-47
2022/02/23 09:48:49;;;;;;;0.70;0.70;;;;;;;;;;1879089;76;26763;-42
2022/02/23 09:51:16;;;;;;;3.30;0.70;;;;;;;;;;1878384;76;26769;-45
2022/02/23 09:53:46;;;;;;;1.22;0.70;;;;;;;;;;1877300;76;26284;-43
2022/02/23 09:56:14;;;;;;;0.70;0.70;;;;;;;;;;1877312;76;26317;-45
2022/02/23 09:58:42;;;;;;;0.70;0.70;;;;;;;;;;1876767;76;27652;-48
2022/02/23 10:01:09;;;;;;;0.65;0.65;;;;;;;;;;1877914;76;26356;-43
2022/02/23 10:03:42;;;;;;;1.85;0.70;;;;;;;;;;1878395;76;26347;-46
2022/02/23 10:06:10;;;;;;;0.70;0.70;;;;;;;;;;1873618;76;26762;-44
2022/02/23 10:08:37;;;;;;;0.65;0.65;;;;;;;;;;1869229;76;26279;-45
2022/02/23 10:11:08;;;;;;;0.60;0.60;;;;;;;;;;1875666;76;26390;-47
2022/02/23 10:13:34;;;;;;;0.53;0.53;;;;;;;;;;1880114;76;26877;-46
2022/02/23 10:16:03;;;;;;;0.62;0.62;;;;;;;;;;1873779;76;26276;-44
2022/02/23 10:18:31;;;;;;;1.95;0.60;;;;;;;;;;1872565;75;26315;-45
2022/02/23 10:20:58;;;;;;;0.60;0.60;;;;;;;;;;1876068;76;26697;-45
2022/02/23 10:23:28;;;;;;;0.60;0.60;;;;;;;;;;1878007;76;26202;-47
2022/02/23 10:26:02;;;;;;;0.82;0.60;;;;;;;;;;1874984;76;26777;-46
2022/02/23 10:28:27;;;;;;;0.70;0.70;;;;;;;;;;1878492;76;26347;-44
2022/02/23 10:30:56;;;;;;;0.50;0.50;;;;;;;;;;1873817;76;26355;-44
2022/02/23 10:33:24;;;;;;;0.60;0.60;;;;;;;;;;1878625;75;26292;-44
2022/02/23 10:35:57;;;;;;;0.65;0.65;;;;;;;;;;1874898;76;26343;-48
2022/02/23 10:38:28;;;;;;;0.70;0.70;;;;;;;;;;1880995;76;26706;-47
2022/02/23 10:41:00;;;;;;;0.70;0.70;;;;;;;;;;1887161;76;26327;-48
2022/02/23 10:43:29;;;;;;;1.02;0.90;;;;;;;;;;1888731;76;26300;-42
2022/02/23 10:46:04;;;;;;;0.60;0.60;;;;;;;;;;1884413;76;26316;-42
2022/02/23 10:48:33;;;;;;;1.75;0.45;;;;;;;;;;1886978;76;26322;-42
2022/02/23 10:51:00;;;;;;;0.80;0.80;;;;;;;;;;1882393;76;26201;-45
2022/02/23 10:53:28;;;;;;;0.40;0.40;;;;;;;;;;1887266;76;26792;-46
2022/02/23 10:55:55;;;;;;;2.55;0.60;;;;;;;;;;1884773;75;26304;-44
2022/02/23 10:58:26;;;;;;;0.53;0.53;;;;;;;;;;1885887;76;26720;-43
2022/02/23 11:00:55;;;;;;;0.62;0.62;;;;;;;;;;1882559;76;26319;-46
2022/02/23 11:03:23;;;;;;;0.60;0.60;;;;;;;;;;1883875;76;26244;-44
2022/02/23 11:05:51;;;;;;;1.17;0.60;;;;;;;;;;1887223;76;26338;-44
2022/02/23 11:08:21;;;;;;;3.25;0.70;;;;;;;;;;1888366;76;26795;-45
2022/02/23 11:10:49;;;;;;;1.37;0.75;;;;;;;;;;1891516;75;26768;-43
2022/02/23 11:13:17;;;;;;;0.85;0.60;;;;;;;;;;1886477;76;26319;-44
2022/02/23 11:15:46;;;;;;;0.62;0.62;;;;;;;;;;1884106;76;26322;-44
2022/02/23 11:18:15;;;;;;;0.55;0.55;;;;;;;;;;1889239;76;26378;-43
2022/02/23 11:20:46;;;;;;;1.12;0.55;;;;;;;;;;1888726;76;26280;-44
2022/02/23 11:23:25;;;;;;;0.50;0.50;;;;;;;;;;1887840;76;26782;-45
2022/02/23 11:25:51;;;;;;;0.60;0.60;;;;;;;;;;1887575;76;26731;-45
2022/02/23 11:28:25;;;;;;;0.40;0.40;;;;;;;;;;1884851;76;26323;-45
2022/02/23 11:30:54;;;;;;;0.82;0.60;;;;;;;;;;1888359;76;26275;-43
2022/02/23 11:33:22;;;;;;;8.15;0.80;;;;;;;;;;1884560;76;26354;-43
2022/02/23 11:35:51;;;;;;;9.30;0.60;;;;;;;;;;1888615;76;26344;-43
2022/02/23 11:38:20;;;;;;;18.73;1.85;;;;;;;;;;1887500;76;26280;-45
2022/02/23 11:40:49;;;;;;;11.43;0.90;;;;;;;;;;1865265;76;26382;-45
2022/02/23 11:43:24;;;;;;;12.45;0.90;;;;;;;;;;1862708;75;26270;-44
2022/02/23 11:45:55;;;;;;;31.50;1.52;;;;;;;;;;1857890;76;26609;-45
2022/02/23 11:48:22;;;;;;;6.53;1.20;;;;;;;;;;1879323;75;26285;-44
2022/02/23 11:51:04;;;;;;;5.12;0.80;;;;;;;;;;1877991;75;26346;-45
2022/02/23 11:53:38;;;;;;;9.53;0.90;;;;;;;;;;1878892;75;26300;-45
2022/02/23 11:56:09;;;;;;;7.37;0.57;;;;;;;;;;1877886;75;26314;-49
2022/02/23 11:58:38;;;;;;;8.95;0.80;;;;;;;;;;1876245;75;26264;-47
2022/02/23 12:01:05;;;;;;;4.47;0.68;;;;;;;;;;1873262;76;26297;-46
2022/02/23 12:03:33;;;;;;;2.83;0.60;;;;;;;;;;1879779;76;26275;-47
2022/02/23 12:06:09;;;;;;;3.40;0.35;;;;;;;;;;1871037;76;26626;-46
2022/02/23 12:08:36;;;;;;;6.67;0.70;;;;;;;;;;1877948;76;26400;-46
2022/02/23 12:11:07;;;;;;;3.67;0.90;;;;;;;;;;1882528;75;26265;-44
2022/02/23 12:13:39;;;;;;;7.05;0.80;;;;;;;;;;1880614;75;26425;-45
2022/02/23 12:16:24;;;;;;;2.95;0.62;;;;;;;;;;1878940;76;26666;-45
2022/02/23 12:18:53;;;;;;;4.40;0.65;;;;;;;;;;1860670;75;26304;-44
2022/02/23 12:21:20;;;;;;;2.08;0.70;;;;;;;;;;1878352;76;26361;-47
2022/02/23 12:23:48;;;;;;;2.42;0.62;;;;;;;;;;1867164;76;26224;-44
2022/02/23 12:26:17;;;;;;;1.82;0.70;;;;;;;;;;1869866;76;26653;-46
2022/02/23 12:28:48;;;;;;;1.75;0.50;;;;;;;;;;1877447;76;26643;-44
2022/02/23 12:31:20;;;;;;;3.08;0.60;;;;;;;;;;1879116;76;26271;-44
2022/02/23 12:33:49;;;;;;;1.42;0.60;;;;;;;;;;1878672;76;26730;-44
2022/02/23 12:36:18;;;;;;;0.50;0.50;;;;;;;;;;1879994;76;26765;-46
2022/02/23 12:38:49;;;;;;;2.87;0.60;;;;;;;;;;1873994;76;26824;-46
2022/02/23 12:41:18;;;;;;;1.35;0.60;;;;;;;;;;1878928;76;26745;-44
2022/02/23 12:43:46;;;;;;;1.20;0.60;;;;;;;;;;1876973;76;26823;-46
2022/02/23 12:46:14;;;;;;;2.05;0.45;;;;;;;;;;1860168;76;26751;-44
2022/02/23 12:48:41;;;;;;;1.27;0.60;;;;;;;;;;1880088;76;26793;-45
2022/02/23 12:51:10;;;;;;;3.17;0.70;;;;;;;;;;1875211;76;26748;-44
2022/02/23 12:53:39;;;;;;;1.95;0.60;;;;;;;;;;1884628;76;26263;-46
2022/02/23 12:56:19;;;;;;;1.45;0.47;;;;;;;;;;1879968;76;26360;-44
2022/02/23 12:58:47;;;;;;;2.50;0.60;;;;;;;;;;1876382;76;26311;-46
2022/02/23 13:01:25;;;;;;;1.90;0.60;;;;;;;;;;1877820;76;26272;-44
2022/02/23 13:03:54;;;;;;;0.50;0.45;;;;;;;;;;1874067;76;26316;-43
2022/02/23 13:06:29;;;;;;;2.17;0.60;;;;;;;;;;1872071;76;26291;-44
2022/02/23 13:09:00;;;;;;;2.62;0.75;;;;;;;;;;1874578;76;26331;-43
2022/02/23 13:11:27;;;;;;;2.65;0.93;;;;;;;;;;1875323;76;26618;-46
2022/02/23 13:13:54;;;;;;;1.25;0.50;;;;;;;;;;1879819;76;25953;-50
2022/02/23 13:16:28;;;;;;;1.25;0.60;;;;;;;;;;1879194;76;26737;-45
2022/02/23 13:19:00;;;;;;;3.58;0.78;;;;;;;;;;1877459;76;26264;-45
2022/02/23 13:21:28;;;;;;;0.55;0.55;;;;;;;;;;1878496;76;26281;-45
2022/02/23 13:23:57;;;;;;;1.55;0.60;;;;;;;;;;1867966;76;26281;-44
2022/02/23 13:26:32;;;;;;;1.47;0.60;;;;;;;;;;1879593;75;26265;-44
2022/02/23 13:29:01;;;;;;;0.57;0.57;;;;;;;;;;1880082;76;26312;-44
2022/02/23 13:31:33;;;;;;;2.27;0.70;;;;;;;;;;1867396;76;26261;-45
2022/02/23 13:34:16;;;;;;;0.70;0.50;;;;;;;;;;1874148;76;26304;-46
2022/02/23 13:36:44;;;;;;;0.50;0.50;;;;;;;;;;1880353;76;26268;-43
2022/02/23 13:39:16;;;;;;;0.40;0.40;;;;;;;;;;1879040;76;26214;-44
2022/02/23 13:41:50;;;;;;;2.90;0.50;;;;;;;;;;1876590;76;26351;-43
2022/02/23 13:44:19;;;;;;;0.80;0.62;;;;;;;;;;1864483;76;26260;-47
2022/02/23 13:46:46;;;;;;;0.45;0.45;;;;;;;;;;1864933;76;26281;-45
2022/02/23 13:49:14;;;;;;;0.40;0.40;;;;;;;;;;1875913;76;26323;-45
2022/02/23 13:51:43;;;;;;;0.50;0.50;;;;;;;;;;1877822;76;26276;-44
2022/02/23 13:54:11;;;;;;;1.10;0.60;;;;;;;;;;1881039;76;26743;-45
2022/02/23 13:56:42;;;;;;;0.50;0.50;;;;;;;;;;1881350;76;26827;-46
2022/02/23 13:59:10;;;;;;;0.50;0.42;;;;;;;;;;1876005;76;26263;-44
2022/02/23 14:01:39;;;;;;;0.95;0.60;;;;;;;;;;1877611;75;26358;-45
2022/02/23 14:04:10;;;;;;;0.40;0.40;;;;;;;;;;1875334;76;26262;-45
2022/02/23 14:06:39;;;;;;;2.70;0.50;;;;;;;;;;1876092;76;26350;-44
2022/02/23 14:09:08;;;;;;;1.85;0.70;;;;;;;;;;1879543;76;26227;-43
2022/02/23 14:11:37;;;;;;;2.55;0.53;;;;;;;;;;1879558;76;26218;-44
2022/02/23 14:14:15;;;;;;;2.12;0.60;;;;;;;;;;1873640;76;26789;-43
2022/02/23 14:16:44;;;;;;;2.35;0.60;;;;;;;;;;1875019;76;26264;-44
2022/02/23 14:19:18;;;;;;;0.60;0.60;;;;;;;;;;1879870;76;26648;-42
2022/02/23 14:21:49;;;;;;;1.45;0.62;;;;;;;;;;1872059;75;26422;-45
2022/02/23 14:24:19;;;;;;;0.42;0.42;;;;;;;;;;1869975;75;26312;-42
2022/02/23 14:26:53;;;;;;;0.60;0.60;;;;;;;;;;1872309;76;26455;-43
2022/02/23 14:29:22;;;;;;;0.60;0.60;;;;;;;;;;1878921;76;26253;-43
2022/02/23 14:31:54;;;;;;;0.75;0.75;;;;;;;;;;1879073;76;26288;-43
2022/02/23 14:34:25;;;;;;;1.07;0.93;;;;;;;;;;1874883;76;26304;-45
2022/02/23 14:36:56;;;;;;;1.37;1.12;;;;;;;;;;1879489;76;26269;-44
2022/02/23 14:39:24;;;;;;;3.02;1.12;;;;;;;;;;1878899;76;26798;-46
2022/02/23 14:41:52;;;;;;;2.52;1.45;;;;;;;;;;1882258;76;26371;-43
2022/02/23 14:44:20;;;;;;;4.30;2.10;;;;;;;;;;1879789;76;26274;-43
2022/02/23 14:46:48;;;;;;;2.90;2.22;;;;;;;;;;1878456;76;27303;-44
2022/02/23 14:49:15;;;;;;;5.00;2.33;;;;;;;;;;1879668;76;26335;-45
2022/02/23 14:51:42;;;;;;;6.17;3.10;;;;;;;;;;1875187;76;26204;-44
2022/02/23 14:54:10;;;;;;;4.33;3.02;;;;;;;;;;1872779;76;26268;-45